Terminal Aerodrome Forecast
Issued by NWS

Home | Current Version | Previous Version | Graphics & Text | Print | Product List | Glossary On
Versions: 1 2 3 4 5 6 7 8 9 10 11 12 13 14 15 16 17 18 19 20
000
FTUS43 KFGF 271405 AAA
TAFBJI
TAF AMD
KBJI 271405Z 2714/2812 16009KT P6SM SCT250
     FM271700 15010G18KT P6SM SCT250
     FM281000 15015G23KT P6SM -TSRA BKN030CB=

USA.gov is the U.S. government's official web portal to all federal, state and local government web resources and services.